ユジノサハリンスク の空港の天気 - METARとTAF

ホムトヴォ空港(ユジノサハリンスク) ( UHSS / UUS ) - ロシア ユジノサハリンスク
飛行場実況気象(Metar)
観測時間09/23 08:00 VLAT (09/22 22:00 UTC)
風向・風速北 7m/s
視程10km以上
天気現象弱いしゅう雨
全天の8割程度の雲 雲底高度 820m
気温12℃
湿度94%
気圧1011hPa
METARUHSS 222200Z 01007MPS 9999 -SHRA BKN027CB 12/11 Q1011 R01/290060 NOSIG RMK MT OBSC QFE757/1009
過去の天気等 Google飛行場航空写真 Wunderground天気予報

過去48時間のMETAR

飛行場予報(TAF)
発表時間: 9/23 06:00 VLAT (9/22 20:00 UTC)
予報対象時間: 23日7時 VLAT ~ 24日13時 VLAT
風向・風速北 6m/s 瞬間風速 11m/s
視程10km以上
全天の8割程度の積乱雲 雲底高度 760m
23日7時 VLAT ~ 23日16時 VLAT に一時的に
視程3500m
天気現象弱いしゅう雨
全天の8割程度の積乱雲 雲底高度 340m
TAF UHSS 222000Z 2221/2403 36006G11MPS 9999 BKN025CB
TEMPO 2221/2306 3500 -SHRA BKN011CB